createdAt,value
2023-04-21T00:03:26.526Z,24.63
2023-04-21T00:07:30.556Z,20.20
2023-04-21T00:11:32.254Z,21.83
2023-04-21T00:15:33.926Z,23.13
2023-04-21T00:19:35.823Z,22.65
2023-04-21T00:23:37.608Z,26.80
2023-04-21T00:27:39.355Z,27.83
2023-04-21T00:31:41.217Z,22.25
2023-04-21T00:35:42.984Z,27.40
2023-04-21T00:39:44.794Z,35.67
2023-04-21T00:44:07.222Z,34.17
2023-04-21T00:48:09.094Z,25.52
2023-04-21T00:52:11.985Z,24.40
2023-04-21T00:56:13.816Z,21.98
2023-04-21T01:00:16.698Z,25.05
2023-04-21T01:04:18.532Z,22.15
2023-04-21T01:08:20.621Z,24.40
2023-04-21T01:12:22.314Z,23.33
2023-04-21T01:16:24.697Z,24.58
2023-04-21T01:20:26.550Z,21.75
2023-04-21T01:24:45.363Z,27.98
2023-04-21T01:28:48.743Z,29.73
2023-04-21T01:32:50.518Z,27.02
2023-04-21T01:36:52.223Z,28.88
2023-04-21T01:40:54.938Z,25.30
2023-04-21T01:44:56.899Z,26.10
2023-04-21T01:48:58.585Z,26.40
2023-04-21T01:53:00.280Z,27.30
2023-04-21T01:57:02.592Z,24.95
2023-04-21T02:01:04.461Z,28.20
2023-04-21T02:05:06.537Z,24.77
2023-04-21T02:09:08.246Z,25.02
2023-04-21T02:13:09.913Z,22.83
2023-04-21T02:17:11.819Z,28.23
2023-04-21T02:21:13.453Z,24.23
2023-04-21T02:25:15.137Z,24.00
2023-04-21T02:29:16.985Z,28.10
2023-04-21T02:33:18.727Z,27.38
2023-04-21T02:37:21.065Z,25.75
2023-04-21T02:41:23.267Z,25.60
2023-04-21T02:45:25.496Z,23.63
2023-04-21T02:49:27.188Z,29.90
2023-04-21T02:53:28.996Z,28.30
2023-04-21T02:57:30.705Z,28.60
2023-04-21T03:01:32.361Z,29.05
2023-04-21T03:05:34.107Z,27.23
2023-04-21T03:09:35.959Z,35.63
2023-04-21T03:13:37.657Z,27.40
2023-04-21T03:17:39.534Z,29.45
2023-04-21T03:21:41.215Z,27.55
2023-04-21T03:25:43.131Z,29.80
2023-04-21T03:29:44.926Z,26.63
2023-04-21T03:33:46.592Z,25.67
2023-04-21T03:37:49.714Z,27.17
2023-04-21T03:45:53.453Z,29.70
2023-04-21T03:49:55.139Z,30.27
2023-04-21T03:53:56.805Z,33.47
2023-04-21T03:57:58.514Z,34.38
2023-04-21T04:02:00.352Z,32.05
2023-04-21T04:06:04.033Z,32.33
2023-04-21T04:10:06.068Z,28.30
2023-04-21T04:14:08.847Z,31.45
2023-04-21T04:18:10.568Z,30.88
2023-04-21T04:22:12.352Z,35.72
2023-04-21T04:26:14.135Z,29.55
2023-04-21T04:30:16.663Z,33.75
2023-04-21T04:34:18.702Z,35.28
2023-04-21T04:38:20.695Z,30.58
2023-04-21T04:42:22.553Z,31.98
2023-04-21T04:46:24.871Z,32.08
2023-04-21T04:50:27.061Z,33.33
2023-04-21T04:54:29.251Z,36.85
2023-04-21T04:58:30.950Z,31.25
2023-04-21T05:02:33.200Z,31.52
2023-04-21T05:06:35.140Z,27.03
2023-04-21T05:10:36.859Z,29.98
2023-04-21T05:14:38.611Z,25.52
2023-04-21T05:18:40.709Z,26.48
2023-04-21T05:22:42.491Z,28.20
2023-04-21T05:26:44.895Z,27.45
2023-04-21T05:30:46.555Z,32.83
2023-04-21T05:34:48.241Z,34.63
2023-04-21T05:38:49.952Z,30.13
2023-04-21T05:42:51.673Z,27.98
2023-04-21T05:46:53.367Z,32.65
2023-04-21T05:50:55.836Z,32.85
2023-04-21T05:54:59.686Z,35.37
2023-04-21T05:59:01.492Z,30.58
2023-04-21T06:03:03.553Z,30.65
2023-04-21T06:07:07.105Z,31.75
2023-04-21T06:11:09.106Z,27.90
2023-04-21T06:15:10.966Z,27.00
2023-04-21T06:19:12.692Z,31.85
2023-04-21T06:23:14.584Z,24.45
2023-04-21T06:27:16.729Z,28.48
2023-04-21T06:31:19.797Z,27.08
2023-04-21T06:39:23.799Z,26.67
2023-04-21T06:43:25.608Z,25.17
2023-04-21T06:47:27.739Z,23.73
2023-04-21T06:51:29.619Z,26.30
2023-04-21T06:55:31.397Z,26.00
2023-04-21T06:59:34.475Z,23.83
2023-04-21T07:03:36.569Z,23.95
2023-04-21T07:07:38.474Z,26.57
2023-04-21T07:11:40.450Z,22.00
2023-04-21T07:15:42.196Z,25.33
2023-04-21T07:19:44.015Z,21.35
2023-04-21T07:23:45.779Z,20.40
2023-04-21T07:27:47.584Z,23.35
2023-04-21T07:31:49.542Z,27.83
2023-04-21T07:35:51.311Z,22.13
2023-04-21T07:39:53.030Z,19.13
2023-04-21T07:43:56.167Z,18.75
2023-04-21T07:51:59.604Z,18.95
2023-04-21T07:56:01.442Z,17.83
2023-04-21T08:00:03.561Z,16.92
2023-04-21T08:04:05.645Z,18.73
2023-04-21T08:08:07.801Z,15.17
2023-04-21T08:12:09.587Z,16.02
2023-04-21T08:16:11.672Z,16.13
2023-04-21T08:20:13.916Z,15.40
2023-04-21T08:24:15.719Z,22.50
2023-04-21T08:28:17.483Z,11.75
2023-04-21T08:32:23.522Z,11.43
2023-04-21T08:36:29.586Z,14.10
2023-04-21T08:40:37.889Z,10.07
2023-04-21T08:44:41.554Z,20.88
2023-04-21T08:48:43.290Z,10.95
2023-04-21T08:52:45.061Z,10.73
2023-04-21T08:56:49.247Z,13.70
2023-04-21T09:00:51.284Z,7.40
2023-04-21T09:04:55.248Z,7.30
2023-04-21T09:08:57.492Z,6.35
2023-04-21T09:13:06.799Z,8.98
2023-04-21T09:17:08.578Z,9.23
2023-04-21T09:21:12.813Z,8.27
2023-04-21T09:25:20.352Z,8.88
2023-04-21T09:29:26.207Z,7.15
2023-04-21T09:33:34.408Z,9.82
2023-04-21T09:37:44.313Z,12.35
2023-04-21T09:41:46.581Z,8.70
2023-04-21T09:45:49.806Z,5.80
2023-04-21T09:49:52.359Z,4.93
2023-04-21T09:53:59.692Z,9.70
2023-04-21T09:58:06.637Z,6.45
2023-04-21T10:02:09.771Z,5.25
2023-04-21T10:06:12.187Z,6.15
2023-04-21T10:10:28.532Z,7.68
2023-04-21T10:14:30.313Z,4.80
2023-04-21T10:18:32.085Z,5.28
2023-04-21T10:22:34.686Z,5.75
2023-04-21T10:26:36.393Z,5.47
2023-04-21T10:30:38.208Z,7.15
2023-04-21T10:34:40.596Z,8.30
2023-04-21T10:38:43.698Z,5.28
2023-04-21T10:42:45.410Z,4.13
2023-04-21T10:46:48.697Z,8.45
2023-04-21T10:50:50.593Z,4.15
2023-04-21T10:54:59.524Z,7.97
2023-04-21T10:59:01.293Z,4.82
2023-04-21T11:03:04.612Z,6.53
2023-04-21T11:07:12.256Z,5.95
2023-04-21T11:11:23.969Z,3.97
2023-04-21T11:15:25.890Z,7.00
2023-04-21T11:19:28.011Z,4.30
2023-04-21T11:23:29.989Z,6.00
2023-04-21T11:27:31.807Z,5.32
2023-04-21T11:31:34.048Z,7.22
2023-04-21T11:35:40.822Z,6.53
2023-04-21T11:39:43.916Z,4.32
2023-04-21T11:43:46.556Z,4.85
2023-04-21T11:47:48.849Z,3.72
2023-04-21T11:51:50.678Z,7.00
2023-04-21T11:55:52.489Z,6.05
2023-04-21T11:59:54.637Z,5.30
2023-04-21T12:03:57.037Z,6.57
2023-04-21T12:07:58.851Z,9.25
2023-04-21T12:12:04.530Z,8.07
2023-04-21T12:16:07.367Z,13.07
2023-04-21T12:24:11.440Z,13.48
2023-04-21T12:28:17.151Z,7.30
2023-04-21T12:32:18.944Z,7.13
2023-04-21T12:36:21.318Z,8.80
2023-04-21T12:40:23.156Z,16.10
2023-04-21T12:44:25.788Z,3.92
2023-04-21T12:48:27.644Z,6.57
2023-04-21T12:52:29.300Z,9.70
2023-04-21T12:56:31.658Z,11.45
2023-04-21T13:00:35.813Z,11.65
2023-04-21T13:04:39.164Z,4.78
2023-04-21T13:08:41.001Z,10.32
2023-04-21T13:12:42.711Z,5.65
2023-04-21T13:16:44.486Z,4.72
2023-04-21T13:20:46.987Z,6.72
2023-04-21T13:24:48.710Z,4.03
2023-04-21T13:28:50.661Z,6.85
2023-04-21T13:32:52.549Z,8.70
2023-04-21T13:36:54.895Z,12.63
2023-04-21T13:40:57.343Z,8.70
2023-04-21T13:44:59.242Z,8.13
2023-04-21T13:49:00.984Z,7.77
2023-04-21T13:53:02.638Z,8.10
2023-04-21T13:57:05.340Z,4.15
2023-04-21T14:05:09.098Z,6.25
2023-04-21T14:09:11.902Z,5.70
2023-04-21T14:13:26.857Z,3.83
2023-04-21T14:17:35.229Z,5.90
2023-04-21T14:21:37.028Z,4.38
2023-04-21T14:25:38.740Z,3.58
2023-04-21T14:29:40.804Z,4.30
2023-04-21T14:33:42.461Z,2.90
2023-04-21T14:37:44.154Z,7.90
2023-04-21T14:41:45.965Z,9.60
2023-04-21T14:45:48.409Z,4.50
2023-04-21T14:49:55.020Z,4.65
2023-04-21T14:53:57.006Z,4.75
2023-04-21T14:57:58.863Z,5.05
2023-04-21T15:02:00.993Z,14.45
2023-04-21T15:06:03.921Z,5.82
2023-04-21T15:10:06.627Z,3.05
2023-04-21T15:14:08.403Z,10.80
2023-04-21T15:18:10.405Z,4.72
2023-04-21T15:22:12.640Z,1.87
2023-04-21T15:26:14.401Z,2.17
2023-04-21T15:30:16.259Z,5.38
2023-04-21T15:34:18.120Z,6.80
2023-04-21T15:38:21.133Z,5.68
2023-04-21T15:42:24.200Z,3.13
2023-04-21T15:46:25.933Z,3.58
2023-04-21T15:50:29.996Z,3.17
2023-04-21T15:54:34.171Z,6.70
2023-04-21T15:58:36.526Z,5.47
2023-04-21T16:02:38.859Z,3.65
2023-04-21T16:06:40.759Z,1.33
2023-04-21T16:10:42.516Z,1.35
2023-04-21T16:14:56.026Z,3.13
2023-04-21T16:19:03.354Z,3.78
2023-04-21T16:23:05.244Z,3.58
2023-04-21T16:27:07.001Z,3.05
2023-04-21T16:31:08.748Z,2.83
2023-04-21T16:35:11.383Z,2.85
2023-04-21T16:39:14.479Z,7.30
2023-04-21T16:43:16.456Z,3.95
2023-04-21T16:47:18.245Z,2.40
2023-04-21T16:51:19.986Z,3.10
2023-04-21T16:55:23.053Z,9.32
2023-04-21T16:59:24.762Z,4.82
2023-04-21T17:03:29.070Z,2.92
2023-04-21T17:07:34.610Z,4.38
2023-04-21T17:11:38.167Z,2.63
2023-04-21T17:15:42.016Z,5.18
2023-04-21T17:19:43.732Z,4.93
2023-04-21T17:23:45.706Z,2.55
2023-04-21T17:27:47.772Z,4.50
2023-04-21T17:31:49.574Z,8.90
2023-04-21T17:36:02.562Z,8.17
2023-04-21T17:40:07.363Z,4.20
2023-04-21T17:44:09.071Z,2.42
2023-04-21T17:48:11.015Z,3.83
2023-04-21T17:52:14.156Z,6.80
2023-04-21T17:56:18.840Z,4.28
2023-04-21T18:00:20.676Z,1.92
2023-04-21T18:04:24.726Z,9.07
2023-04-21T18:08:26.854Z,3.50
2023-04-21T18:12:28.534Z,1.60
2023-04-21T18:16:30.531Z,2.45
2023-04-21T18:20:32.678Z,6.20
2023-04-21T18:24:34.861Z,2.88
2023-04-21T18:28:36.705Z,1.30
2023-04-21T18:32:39.886Z,3.45
2023-04-21T18:36:42.951Z,3.78
2023-04-21T18:44:46.969Z,2.47
2023-04-21T18:48:48.640Z,5.73
2023-04-21T18:52:50.291Z,2.58
2023-04-21T18:56:52.009Z,2.55
2023-04-21T19:00:53.717Z,1.50
2023-04-21T19:04:55.479Z,8.35
2023-04-21T19:08:57.658Z,2.92
2023-04-21T19:12:59.331Z,1.83
2023-04-21T19:17:01.112Z,2.80
2023-04-21T19:21:04.459Z,5.93
2023-04-21T19:25:08.030Z,2.95
2023-04-21T19:29:12.210Z,4.28
2023-04-21T19:33:14.024Z,2.50
2023-04-21T19:37:15.909Z,4.75
2023-04-21T19:41:17.559Z,3.25
2023-04-21T19:45:29.192Z,2.33
2023-04-21T19:49:30.892Z,1.73
2023-04-21T19:53:32.574Z,4.72
2023-04-21T19:57:34.392Z,3.15
2023-04-21T20:01:36.664Z,3.33
2023-04-21T20:05:38.396Z,5.73
2023-04-21T20:09:40.438Z,2.67
2023-04-21T20:13:42.372Z,7.27
2023-04-21T20:17:47.274Z,4.35
2023-04-21T20:21:52.361Z,4.38
2023-04-21T20:25:54.088Z,4.10
2023-04-21T20:29:56.489Z,4.38
2023-04-21T20:33:59.509Z,5.60
2023-04-21T20:38:05.565Z,5.60
2023-04-21T20:42:12.994Z,9.00
2023-04-21T20:46:16.849Z,8.75
2023-04-21T20:54:20.477Z,6.35
2023-04-21T20:58:22.374Z,8.38
2023-04-21T21:02:24.465Z,8.13
2023-04-21T21:06:26.540Z,5.93
2023-04-21T21:10:28.259Z,6.45
2023-04-21T21:14:29.892Z,10.35
2023-04-21T21:18:34.542Z,7.40
2023-04-21T21:22:36.364Z,7.15
2023-04-21T21:26:42.712Z,7.93
2023-04-21T21:30:45.268Z,8.68
2023-04-21T21:34:47.131Z,11.53
2023-04-21T21:38:48.803Z,8.23
2023-04-21T21:42:51.428Z,6.15
2023-04-21T21:46:53.112Z,7.85
2023-04-21T21:50:54.841Z,10.93
2023-04-21T21:54:58.287Z,8.25
2023-04-21T21:58:59.954Z,9.02
2023-04-21T22:03:01.733Z,7.68
2023-04-21T22:07:03.668Z,9.15
2023-04-21T22:11:05.877Z,9.05
2023-04-21T22:15:15.033Z,7.97
2023-04-21T22:19:20.238Z,8.25
2023-04-21T22:23:21.940Z,9.40
2023-04-21T22:27:23.599Z,6.70
2023-04-21T22:31:25.603Z,12.00
2023-04-21T22:35:27.402Z,8.98
2023-04-21T22:39:29.204Z,9.43
2023-04-21T22:43:30.984Z,10.27
2023-04-21T22:47:33.421Z,10.65
2023-04-21T22:51:36.231Z,8.90
2023-04-21T22:55:37.979Z,9.70
2023-04-21T22:59:40.104Z,10.93
2023-04-21T23:03:42.187Z,8.77
2023-04-21T23:07:43.925Z,10.50
2023-04-21T23:11:45.641Z,14.20
2023-04-21T23:15:47.373Z,10.10
2023-04-21T23:19:49.076Z,8.55
2023-04-21T23:23:50.922Z,9.05
2023-04-21T23:27:52.669Z,7.97
2023-04-21T23:31:54.488Z,8.57
2023-04-21T23:35:56.275Z,9.70
2023-04-21T23:39:57.963Z,10.70
2023-04-21T23:43:59.743Z,8.32
2023-04-21T23:48:01.430Z,17.13
2023-04-21T23:52:03.217Z,9.45
2023-04-21T23:56:05.347Z,8.00
